Time;durP1;ratioP1;P1;durP2;ratioP2;P2;SDS_P1;SDS_P2;PMS_P1;PMS_P2;Temp;Humidity;BMP_temperature;BMP_pressure;BME280_temperature;BME280_humidity;BME280_pressure;Samples;Min_cycle;Max_cycle;Signal;HPM_P1;HPM_P2
2022/11/16 00:00:19;;;;;;;35.45;21.80;;;11.80;75.70;;;;;;2345601;57;21075;-58
2022/11/16 00:02:50;;;;;;;34.35;21.17;;;11.80;75.70;;;;;;2345568;57;21585;-57
2022/11/16 00:05:18;;;;;;;36.60;20.85;;;11.70;75.70;;;;;;2345833;57;21566;-57
2022/11/16 00:07:45;;;;;;;40.88;21.83;;;11.70;75.70;;;;;;2345581;57;21126;-59
2022/11/16 00:10:12;;;;;;;37.28;21.95;;;11.70;75.60;;;;;;2345288;57;21118;-58
2022/11/16 00:12:40;;;;;;;35.47;20.02;;;11.70;75.50;;;;;;2345409;57;21063;-58
2022/11/16 00:15:08;;;;;;;38.95;21.87;;;11.60;75.50;;;;;;2345395;57;21725;-57
2022/11/16 00:17:36;;;;;;;41.67;22.50;;;11.60;75.50;;;;;;2345533;57;21161;-57
2022/11/16 00:20:04;;;;;;;36.22;20.58;;;11.60;75.60;;;;;;2345079;57;21114;-57
2022/11/16 00:22:32;;;;;;;36.08;20.48;;;11.60;75.60;;;;;;2345446;57;21047;-58
2022/11/16 00:24:59;;;;;;;33.95;19.10;;;11.60;75.60;;;;;;2345399;57;21079;-56
2022/11/16 00:27:26;;;;;;;40.42;22.17;;;11.50;75.60;;;;;;2345742;57;21051;-56
2022/11/16 00:29:53;;;;;;;36.53;21.27;;;11.50;75.80;;;;;;2345217;57;21118;-59
2022/11/16 00:32:20;;;;;;;38.55;19.77;;;11.50;75.80;;;;;;2345587;57;21735;-59
2022/11/16 00:34:48;;;;;;;38.95;21.80;;;11.40;75.80;;;;;;2345525;57;21130;-55
2022/11/16 00:37:15;;;;;;;35.42;21.02;;;11.40;75.80;;;;;;2345474;57;21553;-58
2022/11/16 00:39:42;;;;;;;41.03;23.23;;;11.40;75.80;;;;;;2345314;57;21063;-59
2022/11/16 00:42:09;;;;;;;42.75;21.05;;;11.30;75.80;;;;;;2345281;57;21294;-57
2022/11/16 00:44:36;;;;;;;39.97;22.05;;;11.30;75.90;;;;;;2345520;57;21071;-59
2022/11/16 00:47:04;;;;;;;39.70;22.58;;;11.30;76.00;;;;;;2345328;57;21051;-59
2022/11/16 00:49:32;;;;;;;39.00;20.52;;;11.30;76.00;;;;;;2345361;57;21581;-58
2022/11/16 00:51:59;;;;;;;40.30;22.30;;;11.30;76.20;;;;;;2345390;57;21147;-57
2022/11/16 00:54:26;;;;;;;40.00;22.70;;;11.20;76.20;;;;;;2345387;57;21071;-59
2022/11/16 00:56:53;;;;;;;40.08;22.67;;;11.20;76.30;;;;;;2345353;57;21680;-58
2022/11/16 00:59:21;;;;;;;36.75;21.65;;;11.20;76.20;;;;;;2345449;57;21063;-57
2022/11/16 01:01:48;;;;;;;37.90;21.85;;;11.20;76.30;;;;;;2345544;57;21653;-55
2022/11/16 01:04:15;;;;;;;39.92;19.62;;;11.20;76.30;;;;;;2345146;57;21099;-58
2022/11/16 01:06:42;;;;;;;43.83;23.08;;;11.20;76.30;;;;;;2345546;57;21102;-58
2022/11/16 01:09:09;;;;;;;44.72;23.77;;;11.20;76.30;;;;;;2345209;57;21555;-57
2022/11/16 01:14:23;;;;;;;40.08;21.60;;;11.20;76.30;;;;;;2345366;57;21498;-54
2022/11/16 01:16:50;;;;;;;42.97;22.92;;;11.20;76.40;;;;;;2345502;57;21214;-57
2022/11/16 01:19:17;;;;;;;43.00;22.67;;;11.20;76.50;;;;;;2345221;57;21313;-58
2022/11/16 01:21:44;;;;;;;46.30;23.27;;;11.10;76.40;;;;;;2345165;57;21649;-55
2022/11/16 01:24:12;;;;;;;46.75;24.23;;;11.10;76.40;;;;;;2345474;57;21629;-57
2022/11/16 01:26:39;;;;;;;42.80;23.77;;;11.10;76.40;;;;;;2345530;57;21059;-54
2022/11/16 01:29:06;;;;;;;41.15;23.35;;;11.10;76.60;;;;;;2345490;57;21534;-57
2022/11/16 01:31:33;;;;;;;41.95;21.05;;;11.10;76.60;;;;;;2345535;57;21059;-59
2022/11/16 01:34:01;;;;;;;45.00;21.58;;;11.10;76.50;;;;;;2345611;57;21055;-57
2022/11/16 01:36:28;;;;;;;43.87;23.08;;;11.10;76.50;;;;;;2345292;57;21126;-59
2022/11/16 01:38:55;;;;;;;44.38;22.60;;;11.10;76.60;;;;;;2345373;57;21064;-56
2022/11/16 01:41:25;;;;;;;50.33;23.62;;;11.10;76.50;;;;;;2344976;57;21063;-59
2022/11/16 01:43:55;;;;;;;44.45;23.48;;;11.10;76.40;;;;;;2345679;57;21905;-56
2022/11/16 01:46:23;;;;;;;50.72;24.00;;;11.10;76.40;;;;;;2345465;57;21114;-59
2022/11/16 01:48:56;;;;;;;50.55;25.12;;;11.10;77.10;;;;;;2345458;57;21131;-59
2022/11/16 01:51:24;;;;;;;49.80;24.52;;;11.10;76.30;;;;;;2345610;57;21051;-56
2022/11/16 01:53:51;;;;;;;58.95;25.92;;;11.10;76.30;;;;;;2345441;57;21628;-56
2022/11/16 01:56:19;;;;;;;56.00;25.35;;;11.10;76.20;;;;;;2345676;57;21531;-58
2022/11/16 01:58:46;;;;;;;52.45;25.83;;;11.10;76.30;;;;;;2345379;57;21151;-58
2022/11/16 02:01:14;;;;;;;60.00;26.25;;;11.10;76.20;;;;;;2345312;57;21550;-59
2022/11/16 02:03:41;;;;;;;53.50;26.10;;;11.00;76.20;;;;;;2345451;57;21075;-57
2022/11/16 02:06:26;;;;;;;53.47;24.15;;;11.00;76.30;;;;;;2345340;57;21594;-58
2022/11/16 02:12:08;;;;;;;50.50;23.60;;;11.10;76.40;;;;;;2345101;57;21585;-59
2022/11/16 02:14:47;;;;;;;50.40;23.83;;;11.00;76.20;;;;;;2345228;57;21549;-58
2022/11/16 02:17:22;;;;;;;46.20;21.75;;;11.00;76.30;;;;;;2345505;57;21514;-59
2022/11/16 02:20:34;;;;;;;50.12;22.98;;;11.00;76.30;;;;;;2345343;57;21145;-56
2022/11/16 02:23:28;;;;;;;50.05;21.73;;;11.00;76.40;;;;;;2329033;57;21051;-59
2022/11/16 02:26:09;;;;;;;49.95;23.52;;;11.00;76.00;;;;;;2328432;57;21038;-56
2022/11/16 02:28:49;;;;;;;48.72;22.65;;;11.00;76.00;;;;;;2422828;54;21088;-61
2022/11/16 02:31:23;;;;;;;49.20;23.67;;;11.00;76.20;;;;;;2240141;60;21091;-61
2022/11/16 02:33:55;;;;;;;50.22;22.45;;;11.00;76.30;;;;;;2239917;60;21056;-61
2022/11/16 02:36:24;;;;;;;55.63;24.50;;;11.00;76.20;;;;;;2239861;60;21537;-60
2022/11/16 02:38:57;;;;;;;48.35;24.35;;;11.00;76.10;;;;;;2240192;60;21585;-61
2022/11/16 02:41:27;;;;;;;52.03;22.47;;;11.00;76.10;;;;;;2282581;54;21141;-53
2022/11/16 02:44:00;;;;;;;51.05;24.00;;;11.00;76.00;;;;;;2323952;54;21046;-55
2022/11/16 02:46:45;;;;;;;47.75;22.58;;;11.00;75.90;;;;;;2306873;58;21134;-53
2022/11/16 02:49:17;;;;;;;47.62;22.00;;;11.00;76.00;;;;;;2305970;58;21154;-49
2022/11/16 02:51:46;;;;;;;48.38;23.35;;;11.00;75.90;;;;;;2312770;54;21553;-53
2022/11/16 02:54:17;;;;;;;48.42;24.23;;;11.00;76.10;;;;;;2305549;58;21071;-56
2022/11/16 02:56:51;;;;;;;47.35;23.10;;;10.90;76.00;;;;;;2333233;54;21091;-51
2022/11/16 02:59:18;;;;;;;51.20;22.70;;;10.90;76.00;;;;;;2306570;58;21114;-54
2022/11/16 03:01:50;;;;;;;44.92;21.98;;;10.90;75.90;;;;;;2316130;54;21063;-54
2022/11/16 03:04:23;;;;;;;42.05;20.33;;;10.80;76.10;;;;;;2306464;58;21514;-51
2022/11/16 03:06:52;;;;;;;47.30;22.98;;;10.80;76.30;;;;;;2306643;58;21589;-53
2022/11/16 03:09:25;;;;;;;44.08;21.33;;;10.80;76.20;;;;;;2306752;58;21044;-54
2022/11/16 03:11:59;;;;;;;46.88;22.40;;;10.80;76.20;;;;;;2306778;58;21099;-54
2022/11/16 03:14:31;;;;;;;43.45;19.90;;;10.80;76.30;;;;;;2306994;58;21113;-54
2022/11/16 03:17:00;;;;;;;42.05;20.98;;;10.80;76.40;;;;;;2306699;58;21048;-51
2022/11/16 03:19:32;;;;;;;44.42;19.70;;;10.80;76.30;;;;;;2306978;58;21068;-53
2022/11/16 03:22:08;;;;;;;48.03;21.95;;;10.80;76.20;;;;;;2307159;58;21068;-51
2022/11/16 03:24:35;;;;;;;45.28;22.35;;;10.80;76.10;;;;;;2342626;54;21050;-54
2022/11/16 03:27:07;;;;;;;45.97;23.35;;;10.80;76.20;;;;;;2306590;58;21038;-55
2022/11/16 03:29:41;;;;;;;45.45;21.62;;;10.70;76.20;;;;;;2306597;58;21063;-56
2022/11/16 03:32:15;;;;;;;47.90;21.70;;;10.70;76.40;;;;;;2306823;58;21058;-56
2022/11/16 03:34:52;;;;;;;40.75;20.42;;;10.70;76.40;;;;;;2306912;58;21509;-52
2022/11/16 03:37:21;;;;;;;45.28;21.55;;;10.70;76.40;;;;;;2306891;58;21513;-54
2022/11/16 03:39:51;;;;;;;44.85;21.12;;;10.70;76.40;;;;;;2307028;58;21145;-56
2022/11/16 03:42:22;;;;;;;41.00;20.90;;;10.70;77.30;;;;;;2306719;58;21663;-54
2022/11/16 03:44:51;;;;;;;44.55;21.65;;;10.70;76.60;;;;;;2306981;58;21034;-51
2022/11/16 03:47:18;;;;;;;44.83;20.83;;;10.70;76.50;;;;;;2306895;58;21517;-53
2022/11/16 03:49:46;;;;;;;50.35;22.60;;;10.70;76.50;;;;;;2311333;54;21078;-52
2022/11/16 03:52:14;;;;;;;45.08;21.05;;;10.70;76.50;;;;;;2306655;58;21118;-49
2022/11/16 03:54:41;;;;;;;43.08;21.10;;;10.70;76.50;;;;;;2306843;58;21066;-50
2022/11/16 03:57:14;;;;;;;44.33;20.85;;;10.70;76.60;;;;;;2306578;58;22229;-50
2022/11/16 03:59:42;;;;;;;45.53;22.80;;;10.60;76.70;;;;;;2307082;58;21154;-52
2022/11/16 04:02:09;;;;;;;48.00;22.87;;;10.70;76.70;;;;;;2306772;58;21597;-52
2022/11/16 04:29:51;;;;;;;41.10;21.30;;;10.30;78.70;;;;;;2346916;53;21086;-55
2022/11/16 04:37:51;;;;;;;42.90;22.23;;;10.50;77.10;;;;;;2346989;53;20965;-56
2022/11/16 04:40:20;;;;;;;49.50;23.08;;;10.50;77.00;;;;;;2346877;57;21581;-54
2022/11/16 04:42:51;;;;;;;46.90;24.17;;;10.50;77.00;;;;;;2363786;53;21455;-56
2022/11/16 04:48:06;;;;;;;48.72;23.45;;;10.50;77.00;;;;;;2346027;53;21042;-56
2022/11/16 04:50:34;;;;;;;45.47;22.42;;;10.40;77.10;;;;;;2346581;57;21524;-54
2022/11/16 04:53:02;;;;;;;47.65;22.62;;;10.40;77.30;;;;;;2346735;57;21622;-52
2022/11/16 04:55:29;;;;;;;46.85;22.75;;;10.40;77.30;;;;;;2408511;53;21588;-56
2022/11/16 04:57:56;;;;;;;51.90;23.90;;;10.40;78.20;;;;;;2346842;57;21141;-55
2022/11/16 05:00:24;;;;;;;51.90;23.65;;;10.40;77.50;;;;;;2346535;57;21034;-55
2022/11/16 05:02:51;;;;;;;48.13;22.33;;;10.40;77.50;;;;;;2346900;57;21524;-52
2022/11/16 05:05:19;;;;;;;46.50;21.12;;;10.40;77.60;;;;;;2346448;57;21029;-54
2022/11/16 05:07:46;;;;;;;51.30;24.45;;;10.30;77.60;;;;;;2347035;57;21545;-54
2022/11/16 05:10:14;;;;;;;48.85;22.90;;;10.30;77.70;;;;;;2346781;57;21573;-54
2022/11/16 05:12:41;;;;;;;81.10;26.33;;;10.30;77.80;;;;;;2346751;57;21545;-52
2022/11/16 05:15:10;;;;;;;63.60;27.08;;;10.30;77.90;;;;;;2346496;57;21345;-53
2022/11/16 05:17:37;;;;;;;58.40;24.77;;;10.30;78.00;;;;;;2346477;57;21034;-55
2022/11/16 05:22:55;;;;;;;53.10;22.77;;;10.20;78.20;;;;;;2346781;53;21500;-53
2022/11/16 05:25:22;;;;;;;61.75;23.60;;;10.20;78.40;;;;;;2349669;53;21034;-53
2022/11/16 05:27:49;;;;;;;53.80;24.17;;;10.20;78.50;;;;;;2346618;57;21046;-50
2022/11/16 05:30:17;;;;;;;49.15;23.17;;;10.10;78.60;;;;;;2346502;57;21050;-56
2022/11/16 05:32:45;;;;;;;53.38;24.63;;;10.20;78.80;;;;;;2346643;57;21111;-52
2022/11/16 05:35:12;;;;;;;51.67;23.42;;;10.20;78.80;;;;;;2346740;57;21568;-52
2022/11/16 05:37:39;;;;;;;52.72;26.35;;;10.20;78.80;;;;;;2379695;53;21696;-54
2022/11/16 05:40:09;;;;;;;47.62;22.50;;;10.20;78.80;;;;;;2344158;57;21106;-53
2022/11/16 05:42:36;;;;;;;134.30;27.80;;;10.20;78.80;;;;;;2345709;57;21058;-55
2022/11/16 05:45:05;;;;;;;93.72;26.70;;;10.30;78.90;;;;;;2345683;57;21062;-56
2022/11/16 05:47:32;;;;;;;57.75;24.02;;;10.30;78.60;;;;;;2345918;57;21521;-55
2022/11/16 05:49:59;;;;;;;52.50;25.02;;;10.30;78.60;;;;;;2345767;57;21133;-50
2022/11/16 05:52:26;;;;;;;56.80;23.25;;;10.30;78.70;;;;;;2345507;57;21054;-53
2022/11/16 05:54:54;;;;;;;54.42;25.02;;;10.30;78.70;;;;;;2345602;57;21046;-51
2022/11/16 05:57:21;;;;;;;50.12;23.05;;;10.30;78.70;;;;;;2345629;57;21062;-53
2022/11/16 05:59:48;;;;;;;47.85;21.90;;;10.30;78.80;;;;;;2345753;57;21034;-52
2022/11/16 06:02:15;;;;;;;46.10;21.58;;;10.30;78.80;;;;;;2345605;57;21058;-51
2022/11/16 06:04:42;;;;;;;48.55;23.10;;;10.30;78.80;;;;;;2345492;57;21600;-52
2022/11/16 06:07:09;;;;;;;51.25;23.25;;;10.30;78.70;;;;;;2345811;57;21596;-52
2022/11/16 06:09:37;;;;;;;53.60;23.40;;;10.30;78.80;;;;;;2345903;57;21521;-54
2022/11/16 06:12:05;;;;;;;53.87;24.55;;;10.20;78.60;;;;;;2345349;57;21560;-49
2022/11/16 06:14:32;;;;;;;47.65;22.80;;;10.20;78.60;;;;;;2346715;53;21090;-54
2022/11/16 06:16:59;;;;;;;41.42;21.33;;;10.20;78.80;;;;;;2345661;57;21137;-54
2022/11/16 06:19:27;;;;;;;52.80;22.98;;;10.20;79.00;;;;;;2345793;57;21046;-49
2022/11/16 06:21:54;;;;;;;44.30;22.10;;;10.20;79.10;;;;;;2345879;57;21042;-52
2022/11/16 06:24:21;;;;;;;48.45;22.87;;;10.10;79.20;;;;;;2345701;57;21038;-56
2022/11/16 06:26:48;;;;;;;52.28;22.58;;;10.20;79.20;;;;;;2345272;57;21050;-57
2022/11/16 06:29:15;;;;;;;47.35;21.98;;;10.10;79.20;;;;;;2345705;57;21030;-58
2022/11/16 06:31:42;;;;;;;51.60;23.95;;;10.10;79.40;;;;;;2345576;57;21569;-56
2022/11/16 06:34:10;;;;;;;46.30;23.52;;;10.10;79.40;;;;;;2345827;57;21022;-56
2022/11/16 06:36:37;;;;;;;48.80;23.92;;;10.10;80.00;;;;;;2345781;57;21583;-56
2022/11/16 06:39:04;;;;;;;47.00;22.80;;;10.10;80.70;;;;;;2345715;57;21034;-52
2022/11/16 06:41:31;;;;;;;48.20;22.50;;;10.10;80.80;;;;;;2345829;57;21133;-55
2022/11/16 06:43:59;;;;;;;50.35;22.80;;;10.10;80.30;;;;;;2345626;57;21524;-55
2022/11/16 06:46:26;;;;;;;48.92;23.27;;;10.10;79.80;;;;;;2345617;57;21104;-56
2022/11/16 06:48:53;;;;;;;46.08;21.92;;;10.10;80.50;;;;;;2345578;57;21038;-56
2022/11/16 06:51:20;;;;;;;47.67;22.00;;;10.10;79.60;;;;;;2345654;57;21066;-54
2022/11/16 06:53:47;;;;;;;49.55;22.87;;;10.10;79.40;;;;;;2346102;57;21026;-53
2022/11/16 06:56:15;;;;;;;45.83;22.98;;;10.10;79.40;;;;;;2345574;57;21047;-50
2022/11/16 06:58:42;;;;;;;46.63;23.65;;;10.10;79.40;;;;;;2345963;57;21517;-56
2022/11/16 07:01:10;;;;;;;47.78;24.02;;;10.10;79.40;;;;;;2345382;57;21042;-52
2022/11/16 07:03:38;;;;;;;43.70;21.65;;;10.10;79.40;;;;;;2345435;57;21030;-53
2022/11/16 07:06:09;;;;;;;47.05;24.80;;;10.10;79.40;;;;;;2345034;57;21038;-57
2022/11/16 07:08:37;;;;;;;47.38;22.45;;;10.10;79.50;;;;;;2345213;57;22237;-52
2022/11/16 07:11:06;;;;;;;45.85;21.50;;;10.10;79.40;;;;;;2345250;57;21669;-52
2022/11/16 07:13:35;;;;;;;55.28;24.08;;;10.10;79.50;;;;;;2345557;57;21509;-52
2022/11/16 07:16:03;;;;;;;46.08;23.42;;;10.10;79.50;;;;;;2345379;57;21694;-55
2022/11/16 07:18:33;;;;;;;50.45;24.25;;;10.10;79.40;;;;;;2399127;53;21049;-52
2022/11/16 07:21:06;;;;;;;47.03;22.37;;;10.10;79.50;;;;;;2345579;57;21034;-55
2022/11/16 07:23:33;;;;;;;43.90;22.85;;;10.10;79.60;;;;;;2345409;57;21022;-54
2022/11/16 07:26:00;;;;;;;50.25;23.58;;;10.10;79.40;;;;;;2345537;57;21042;-52
2022/11/16 07:28:28;;;;;;;54.08;23.85;;;10.10;79.30;;;;;;2345678;57;21101;-55
2022/11/16 07:30:59;;;;;;;42.90;22.17;;;10.10;79.30;;;;;;2345737;57;21556;-51
2022/11/16 07:33:26;;;;;;;46.95;24.25;;;10.10;79.40;;;;;;2349630;53;21062;-52
2022/11/16 07:35:53;;;;;;;50.25;24.58;;;10.10;79.20;;;;;;2345594;57;21046;-55
2022/11/16 07:38:21;;;;;;;44.08;23.20;;;10.10;79.20;;;;;;2345371;57;21589;-56
2022/11/16 07:40:48;;;;;;;42.92;20.50;;;10.10;79.20;;;;;;2345288;57;21136;-55
2022/11/16 07:43:15;;;;;;;45.47;24.33;;;10.10;79.10;;;;;;2345247;57;21066;-56
2022/11/16 07:45:42;;;;;;;45.60;21.73;;;10.10;79.10;;;;;;2345401;57;21177;-57
2022/11/16 07:48:09;;;;;;;42.47;22.10;;;10.10;79.10;;;;;;2345220;57;21521;-53
2022/11/16 07:50:36;;;;;;;40.30;21.15;;;10.10;79.20;;;;;;2345773;57;21603;-54
2022/11/16 07:53:04;;;;;;;48.17;22.42;;;10.20;79.10;;;;;;2345742;57;21188;-51
2022/11/16 07:55:32;;;;;;;49.10;24.00;;;10.20;79.00;;;;;;2345450;57;21505;-54
2022/11/16 07:57:59;;;;;;;48.58;23.33;;;10.20;78.80;;;;;;2345450;57;21549;-53
2022/11/16 08:00:27;;;;;;;47.35;24.37;;;10.20;78.90;;;;;;2345685;57;21058;-56
2022/11/16 08:02:56;;;;;;;45.60;21.83;;;10.20;78.80;;;;;;2345710;57;21773;-54
2022/11/16 08:05:23;;;;;;;45.75;23.12;;;10.20;78.80;;;;;;2345982;57;21065;-53
2022/11/16 08:07:50;;;;;;;57.33;24.33;;;10.20;78.60;;;;;;2345217;57;22210;-52
2022/11/16 08:10:18;;;;;;;48.63;22.52;;;10.20;78.70;;;;;;2345680;57;21667;-51
2022/11/16 08:12:45;;;;;;;50.83;24.25;;;10.10;78.70;;;;;;2345533;57;21591;-56
2022/11/16 08:15:13;;;;;;;52.33;23.85;;;10.20;78.90;;;;;;2345659;57;22133;-49
2022/11/16 08:17:40;;;;;;;48.25;23.20;;;10.10;78.70;;;;;;2345889;57;21034;-51
2022/11/16 08:20:09;;;;;;;49.95;22.00;;;10.10;78.80;;;;;;2345528;57;21050;-52
2022/11/16 08:22:37;;;;;;;51.15;22.90;;;10.10;78.50;;;;;;2345381;57;21058;-56
2022/11/16 08:25:06;;;;;;;52.95;24.95;;;10.10;78.40;;;;;;2345622;57;21581;-56
2022/11/16 08:27:34;;;;;;;51.03;24.02;;;10.10;78.60;;;;;;2345361;57;21568;-55
2022/11/16 08:30:02;;;;;;;58.72;24.92;;;10.10;78.70;;;;;;2345663;57;22136;-55
2022/11/16 08:32:30;;;;;;;56.08;24.67;;;10.00;78.60;;;;;;2345791;57;21109;-53
2022/11/16 08:34:57;;;;;;;59.78;26.25;;;10.00;78.80;;;;;;2346005;57;21113;-51
2022/11/16 08:37:24;;;;;;;57.67;27.40;;;10.00;78.90;;;;;;2345767;57;21058;-53
2022/11/16 08:39:52;;;;;;;65.95;26.90;;;10.00;79.80;;;;;;2348630;53;21660;-57
2022/11/16 08:45:06;;;;;;;59.22;26.92;;;10.00;78.90;;;;;;2465347;56;21169;-78
2022/11/16 08:47:33;;;;;;;58.25;25.15;;;10.10;78.90;;;;;;2243159;60;21073;-78
2022/11/16 08:50:00;;;;;;;55.97;25.15;;;10.00;78.90;;;;;;2243330;60;21351;-78
2022/11/16 08:52:27;;;;;;;66.57;29.12;;;10.00;78.90;;;;;;2242870;60;21137;-79
2022/11/16 08:54:55;;;;;;;62.17;25.33;;;10.00;79.80;;;;;;2268435;59;21074;-80
2022/11/16 08:57:22;;;;;;;76.60;26.80;;;10.00;79.10;;;;;;2267579;59;21095;-79
2022/11/16 08:59:49;;;;;;;69.85;27.35;;;9.90;79.20;;;;;;2267933;59;21533;-80
2022/11/16 09:02:24;;;;;;;59.63;23.85;;;9.90;79.20;;;;;;2268401;59;21079;-80
2022/11/16 09:04:51;;;;;;;65.87;26.48;;;9.90;79.20;;;;;;2268171;59;21107;-79
2022/11/16 09:07:19;;;;;;;65.43;28.20;;;9.90;79.20;;;;;;2268641;59;21071;-80
2022/11/16 09:09:46;;;;;;;61.65;26.45;;;9.90;79.40;;;;;;2268451;59;21709;-80
2022/11/16 09:14:51;;;;;;;70.30;29.33;;;9.90;79.60;;;;;;2608646;53;22109;-62
2022/11/16 09:17:18;;;;;;;64.28;28.05;;;9.90;79.60;;;;;;2350636;57;21018;-61
2022/11/16 09:19:45;;;;;;;65.55;26.30;;;10.00;79.60;;;;;;2349851;57;21097;-61
2022/11/16 09:22:13;;;;;;;75.10;28.23;;;9.90;79.60;;;;;;2348498;57;21118;-62
2022/11/16 09:24:40;;;;;;;61.55;24.65;;;10.00;79.50;;;;;;2349235;57;21076;-61
2022/11/16 09:27:07;;;;;;;72.43;29.40;;;10.00;79.50;;;;;;2348545;57;21113;-60
2022/11/16 09:29:35;;;;;;;66.32;27.02;;;9.90;79.20;;;;;;2348094;57;21165;-60
2022/11/16 09:32:04;;;;;;;65.97;27.75;;;9.90;79.30;;;;;;2348934;57;21129;-60
2022/11/16 09:34:33;;;;;;;60.38;26.35;;;9.90;79.50;;;;;;2348468;57;21065;-61
2022/11/16 09:37:01;;;;;;;70.32;27.33;;;9.90;79.60;;;;;;2348921;57;21042;-60
2022/11/16 09:39:31;;;;;;;69.53;27.33;;;9.90;79.60;;;;;;2348553;57;21081;-61
2022/11/16 09:42:18;;;;;;;69.53;27.20;;;9.90;79.50;;;;;;2349030;57;21572;-59
2022/11/16 09:45:03;;;;;;;66.25;27.70;;;9.90;79.60;;;;;;2349060;57;21085;-61
2022/11/16 09:47:44;;;;;;;66.62;26.00;;;9.90;79.60;;;;;;2348491;57;21635;-60
2022/11/16 09:50:29;;;;;;;66.62;27.48;;;9.90;79.60;;;;;;2347538;57;21112;-60
2022/11/16 09:53:05;;;;;;;73.85;29.17;;;9.80;80.60;;;;;;2348856;57;21116;-60
2022/11/16 09:55:37;;;;;;;74.72;30.48;;;9.80;80.00;;;;;;2348785;57;21037;-60
2022/11/16 09:58:16;;;;;;;68.00;28.02;;;9.90;80.10;;;;;;2349124;57;21585;-60
2022/11/16 10:00:50;;;;;;;62.17;25.95;;;9.90;80.10;;;;;;2349019;57;21636;-60
2022/11/16 10:03:18;;;;;;;68.60;26.85;;;9.90;80.10;;;;;;2349146;57;21072;-60
2022/11/16 10:05:54;;;;;;;70.53;28.02;;;9.90;79.90;;;;;;2346081;57;21073;-58
2022/11/16 10:11:15;;;;;;;68.97;27.62;;;9.90;79.80;;;;;;2358686;57;22049;-62
2022/11/16 10:13:54;;;;;;;65.82;27.35;;;9.90;79.70;;;;;;2349183;57;21090;-60
2022/11/16 10:16:30;;;;;;;75.28;28.40;;;9.90;79.70;;;;;;2350149;57;21026;-61
2022/11/16 10:19:04;;;;;;;66.82;28.33;;;9.90;79.90;;;;;;2349632;57;21528;-62
2022/11/16 10:21:39;;;;;;;69.90;25.58;;;9.90;79.90;;;;;;2348145;57;21042;-62
2022/11/16 10:27:27;;;;;;;76.75;29.50;;;9.90;80.10;;;;;;2329797;57;22096;-60
2022/11/16 10:30:06;;;;;;;82.90;30.60;;;9.90;80.10;;;;;;2320653;58;21045;-61
2022/11/16 10:32:36;;;;;;;76.20;30.20;;;9.90;80.00;;;;;;2319713;58;21044;-60
2022/11/16 10:35:14;;;;;;;74.47;29.48;;;9.80;80.10;;;;;;2319919;58;21143;-60
2022/11/16 10:37:47;;;;;;;75.90;29.70;;;9.90;80.20;;;;;;2319457;58;22115;-61
2022/11/16 10:40:19;;;;;;;;;;;9.80;80.10;;;;;;2323160;58;21092;-60
2022/11/16 10:42:53;;;;;;;78.80;29.98;;;9.90;80.10;;;;;;2319128;58;20115;-61
2022/11/16 10:45:27;;;;;;;80.70;30.55;;;9.90;79.80;;;;;;2319284;58;21604;-61
2022/11/16 10:48:00;;;;;;;76.40;29.50;;;9.90;80.10;;;;;;2320427;58;21167;-61
2022/11/16 10:50:38;;;;;;;76.00;29.98;;;9.90;80.10;;;;;;2318623;58;21064;-61
2022/11/16 10:53:10;;;;;;;81.03;32.47;;;9.90;80.10;;;;;;2320190;58;21100;-61
2022/11/16 10:55:38;;;;;;;75.72;29.05;;;9.90;80.10;;;;;;2320691;58;21116;-60
2022/11/16 10:58:06;;;;;;;75.65;31.15;;;10.00;80.10;;;;;;2320309;58;21739;-61
2022/11/16 11:00:36;;;;;;;69.60;30.80;;;10.00;80.10;;;;;;2319666;58;21052;-61
2022/11/16 11:03:04;;;;;;;71.35;28.50;;;10.00;80.00;;;;;;2320087;58;21064;-61
2022/11/16 11:05:33;;;;;;;77.62;29.50;;;10.10;80.10;;;;;;2320224;58;21060;-60
2022/11/16 11:08:03;;;;;;;70.62;28.58;;;10.10;80.00;;;;;;2320318;58;21069;-60
2022/11/16 11:10:32;;;;;;;80.68;31.02;;;10.10;79.80;;;;;;2320487;58;21065;-61
2022/11/16 11:13:22;;;;;;;69.55;28.75;;;10.20;79.70;;;;;;2320457;58;21143;-61
2022/11/16 11:15:50;;;;;;;80.57;31.48;;;10.20;79.60;;;;;;2321031;58;21170;-61
2022/11/16 11:18:27;;;;;;;83.25;32.20;;;10.30;79.40;;;;;;2319957;58;21040;-60
2022/11/16 11:21:11;;;;;;;72.70;30.52;;;10.30;79.40;;;;;;2319225;58;21048;-61
2022/11/16 11:23:44;;;;;;;81.60;31.42;;;10.30;79.30;;;;;;2319126;58;21049;-61
2022/11/16 11:26:28;;;;;;;71.20;28.50;;;10.30;79.10;;;;;;2319734;58;21120;-61
2022/11/16 11:28:56;;;;;;;75.07;29.90;;;10.30;79.30;;;;;;2319189;58;21060;-61
2022/11/16 11:31:29;;;;;;;82.75;31.33;;;10.30;79.70;;;;;;2319547;58;21069;-59
2022/11/16 11:33:58;;;;;;;;;;;10.30;79.90;;;;;;2323194;58;21124;-58
2022/11/16 11:36:31;;;;;;;74.78;29.52;;;10.40;79.30;;;;;;2319467;58;20095;-60
2022/11/16 11:38:59;;;;;;;;;;;10.30;78.70;;;;;;2322307;57;21073;-59
2022/11/16 11:41:33;;;;;;;83.22;29.48;;;10.30;78.90;;;;;;2318657;58;20067;-61
2022/11/16 11:44:03;;;;;;;78.90;29.98;;;10.30;78.70;;;;;;2319261;58;21049;-61
2022/11/16 11:46:36;;;;;;;75.47;29.70;;;10.30;79.10;;;;;;2318555;58;21052;-61
2022/11/16 11:49:10;;;;;;;75.15;28.77;;;10.30;79.20;;;;;;2318881;58;21052;-61
2022/11/16 11:54:20;;;;;;;65.35;29.58;;;10.30;79.30;;;;;;2273900;59;22120;-61
2022/11/16 11:56:48;;;;;;;73.07;28.58;;;10.30;79.30;;;;;;2292219;58;21075;-61
2022/11/16 11:59:20;;;;;;;74.37;27.50;;;10.40;79.40;;;;;;2301244;58;21503;-59
2022/11/16 12:02:10;;;;;;;68.28;27.33;;;10.40;79.00;;;;;;2318370;58;21056;-61
2022/11/16 12:05:23;;;;;;;75.10;28.20;;;10.40;79.00;;;;;;2319004;58;21128;-60
2022/11/16 12:08:06;;;;;;;75.50;26.90;;;10.40;78.90;;;;;;2319301;58;21195;-62
2022/11/16 12:10:45;;;;;;;66.90;26.25;;;10.40;78.70;;;;;;2318703;58;21163;-60
2022/11/16 12:13:35;;;;;;;68.40;28.05;;;10.40;79.40;;;;;;2318794;58;21068;-62
2022/11/16 12:16:13;;;;;;;71.72;28.10;;;10.40;78.70;;;;;;2319448;58;21052;-60
2022/11/16 12:18:56;;;;;;;67.28;26.20;;;10.40;78.70;;;;;;2318840;58;21614;-60
2022/11/16 12:24:28;;;;;;;72.43;27.48;;;10.50;78.90;;;;;;2540194;54;22716;-59
2022/11/16 12:27:04;;;;;;;74.57;28.87;;;10.50;78.80;;;;;;2320848;58;21076;-60
2022/11/16 12:29:39;;;;;;;72.10;28.73;;;10.50;78.70;;;;;;2332914;57;21037;-62
2022/11/16 12:35:27;;;;;;;66.55;31.65;;;10.50;78.70;;;;;;2338565;57;27844;-61
2022/11/16 12:38:04;;;;;;;59.22;25.65;;;10.50;80.30;;;;;;2350173;57;21124;-62
2022/11/16 12:40:42;;;;;;;65.90;27.13;;;10.50;79.50;;;;;;2372700;56;21696;-59
2022/11/16 12:43:18;;;;;;;64.62;27.33;;;10.70;78.90;;;;;;2376069;56;21111;-61
2022/11/16 12:45:53;;;;;;;63.85;27.83;;;10.70;78.50;;;;;;2376704;56;21083;-60
2022/11/16 12:48:58;;;;;;;61.70;26.20;;;10.70;78.10;;;;;;2376191;56;21064;-61
2022/11/16 12:54:33;;;;;;;58.35;25.58;;;10.70;77.60;;;;;;2539098;54;22155;-62
2022/11/16 12:57:10;;;;;;;59.78;27.45;;;10.70;77.60;;;;;;2293475;58;21058;-60
2022/11/16 13:00:04;;;;;;;59.28;25.98;;;10.70;77.50;;;;;;2292347;58;21059;-61
2022/11/16 13:02:58;;;;;;;57.85;25.65;;;10.70;77.70;;;;;;2291876;59;21538;-61
2022/11/16 13:05:39;;;;;;;62.20;26.92;;;10.60;77.40;;;;;;2291284;59;21075;-63
2022/11/16 13:08:14;;;;;;;57.55;26.60;;;10.60;77.60;;;;;;2291186;59;21138;-63
2022/11/16 13:10:45;;;;;;;58.95;26.10;;;10.60;77.80;;;;;;2291356;59;21060;-60
2022/11/16 13:13:22;;;;;;;60.85;25.75;;;10.60;77.90;;;;;;2292469;59;21115;-61
2022/11/16 13:15:51;;;;;;;48.70;22.75;;;10.60;78.00;;;;;;2292770;59;21638;-61
2022/11/16 13:18:22;;;;;;;59.72;25.70;;;10.60;78.00;;;;;;2292417;59;21598;-60
2022/11/16 13:20:54;;;;;;;57.30;24.45;;;10.60;78.00;;;;;;2292024;59;21115;-61
2022/11/16 13:23:32;;;;;;;56.15;25.30;;;10.60;78.00;;;;;;2291887;59;21064;-58
2022/11/16 13:26:09;;;;;;;61.08;26.05;;;10.60;78.00;;;;;;2291378;59;21166;-61
2022/11/16 13:28:41;;;;;;;58.00;24.48;;;10.60;77.80;;;;;;2291812;59;21067;-61
2022/11/16 13:31:14;;;;;;;63.63;26.75;;;10.60;77.70;;;;;;2291442;59;21119;-58
2022/11/16 13:33:47;;;;;;;59.33;26.87;;;10.60;77.60;;;;;;2291777;59;21067;-60
2022/11/16 13:36:43;;;;;;;51.53;23.90;;;10.50;77.30;;;;;;2292139;59;21142;-61
2022/11/16 13:39:13;;;;;;;54.85;24.87;;;10.60;77.60;;;;;;2292027;59;21055;-60
2022/11/16 13:41:42;;;;;;;51.80;22.45;;;10.50;77.40;;;;;;2291184;59;21083;-62
2022/11/16 13:47:22;;;;;;;55.63;25.02;;;10.50;77.60;;;;;;2357876;57;22605;-55
2022/11/16 13:49:51;;;;;;;62.47;26.87;;;10.50;77.40;;;;;;2346309;57;21553;-56
2022/11/16 13:52:19;;;;;;;50.20;23.50;;;10.40;77.20;;;;;;2345587;57;21042;-53
2022/11/16 13:54:49;;;;;;;52.90;24.63;;;10.40;77.20;;;;;;2345876;57;21208;-55